Terminal Aerodrome Forecast
Issued by NWS

Home | Current Version | Previous Version | Graphics & Text | Print | Product List | Glossary On
Versions: 1 2 3 4 5 6 7 8 9 10 11 12 13 14
000
FTUS43 KMPX 132300
TAFAXN
TAF
KAXN 132321Z 1400/1424 20011KT P6SM BKN060
     FM140700 25008KT P6SM FEW060 SCT200
     FM141500 29010KT P6SM SCT200=

USA.gov is the U.S. government's official web portal to all federal, state and local government web resources and services.